createdAt,value
2023-01-29T00:00:17.974Z,0.55
2023-01-29T00:02:46.561Z,0.74
2023-01-29T00:05:26.935Z,0.51
2023-01-29T00:07:55.777Z,0.67
2023-01-29T00:10:24.480Z,0.23
2023-01-29T00:12:53.067Z,0.84
2023-01-29T00:15:22.847Z,0.83
2023-01-29T00:17:51.297Z,0.67
2023-01-29T00:20:20.164Z,0.90
2023-01-29T00:22:48.832Z,0.97
2023-01-29T00:25:17.433Z,0.78
2023-01-29T00:27:45.880Z,0.91
2023-01-29T00:30:19.318Z,0.74
2023-01-29T00:32:49.406Z,0.70
2023-01-29T00:35:19.542Z,0.68
2023-01-29T00:37:48.021Z,0.91
2023-01-29T00:40:17.228Z,0.89
2023-01-29T00:43:04.471Z,0.92
2023-01-29T00:45:33.693Z,0.68
2023-01-29T00:48:03.733Z,0.70
2023-01-29T00:50:32.762Z,1.05
2023-01-29T00:53:01.305Z,1.05
2023-01-29T00:55:29.800Z,0.59
2023-01-29T00:57:58.105Z,0.64
2023-01-29T01:00:26.691Z,0.73
2023-01-29T01:03:06.479Z,0.47
2023-01-29T01:05:36.988Z,0.81
2023-01-29T01:08:27.655Z,0.49
2023-01-29T01:11:04.339Z,0.88
2023-01-29T01:13:34.594Z,1.02
2023-01-29T01:16:03.420Z,0.92
2023-01-29T01:18:32.341Z,0.91
2023-01-29T01:21:02.364Z,0.73
2023-01-29T01:23:30.806Z,1.02
2023-01-29T01:25:59.236Z,0.95
2023-01-29T01:28:27.989Z,1.07
2023-01-29T01:30:56.407Z,0.74
2023-01-29T01:33:25.393Z,0.80
2023-01-29T01:35:53.935Z,0.80
2023-01-29T01:38:24.455Z,1.07
2023-01-29T01:40:52.868Z,0.99
2023-01-29T01:43:22.458Z,1.02
2023-01-29T01:45:51.019Z,0.76
2023-01-29T01:48:24.479Z,1.04
2023-01-29T01:50:58.050Z,0.94
2023-01-29T01:53:34.656Z,1.03
2023-01-29T01:56:09.033Z,0.81
2023-01-29T01:58:41.788Z,0.83
2023-01-29T02:01:11.782Z,0.77
2023-01-29T02:04:03.122Z,0.75
2023-01-29T02:06:49.955Z,0.86
2023-01-29T02:09:34.664Z,0.76
2023-01-29T02:12:06.019Z,0.93
2023-01-29T02:14:38.876Z,1.07
2023-01-29T02:17:08.955Z,0.92
2023-01-29T02:19:54.450Z,0.62
2023-01-29T02:22:43.279Z,0.82
2023-01-29T02:25:42.643Z,1.04
2023-01-29T02:28:49.151Z,1.06
2023-01-29T02:31:30.390Z,1.07
2023-01-29T02:34:12.435Z,1.14
2023-01-29T02:36:48.776Z,1.15
2023-01-29T02:39:25.358Z,0.54
2023-01-29T02:42:14.268Z,0.53
2023-01-29T02:44:49.824Z,0.58
2023-01-29T02:47:23.806Z,0.54
2023-01-29T02:50:03.414Z,0.39
2023-01-29T02:52:40.182Z,0.22
2023-01-29T02:55:14.482Z,0.62
2023-01-29T02:57:47.637Z,0.51
2023-01-29T03:00:22.054Z,0.48
2023-01-29T03:03:00.980Z,0.43
2023-01-29T03:05:36.298Z,0.64
2023-01-29T03:08:11.455Z,0.40
2023-01-29T03:10:46.948Z,0.52
2023-01-29T03:13:21.182Z,0.72
2023-01-29T03:16:01.518Z,0.62
2023-01-29T03:19:03.079Z,0.81
2023-01-29T03:21:55.372Z,0.75
2023-01-29T03:24:52.684Z,0.34
2023-01-29T03:27:46.823Z,0.86
2023-01-29T03:30:37.245Z,0.95
2023-01-29T03:33:21.914Z,0.70
2023-01-29T03:35:56.428Z,0.81
2023-01-29T03:38:29.557Z,1.05
2023-01-29T03:41:03.854Z,1.17
2023-01-29T03:43:40.983Z,1.13
2023-01-29T03:46:18.982Z,1.05
2023-01-29T03:48:57.442Z,1.05
2023-01-29T03:51:31.226Z,0.69
2023-01-29T03:54:14.574Z,0.81
2023-01-29T03:56:58.997Z,0.91
2023-01-29T03:59:40.655Z,0.86
2023-01-29T04:02:27.655Z,0.59
2023-01-29T04:05:03.371Z,0.94
2023-01-29T04:07:35.015Z,0.82
2023-01-29T04:10:10.835Z,0.86
2023-01-29T04:12:44.214Z,0.74
2023-01-29T04:15:17.457Z,0.76
2023-01-29T04:17:52.772Z,0.56
2023-01-29T04:20:33.514Z,0.63
2023-01-29T04:23:02.773Z,0.73
2023-01-29T04:25:45.309Z,0.80
2023-01-29T04:28:22.021Z,0.74
2023-01-29T04:30:59.620Z,0.45
2023-01-29T04:33:38.310Z,0.71
2023-01-29T04:36:28.277Z,0.53
2023-01-29T04:39:11.943Z,0.70
2023-01-29T04:41:50.704Z,0.55
2023-01-29T04:44:25.859Z,0.27
2023-01-29T04:47:04.525Z,0.05
2023-01-29T04:49:40.553Z,0.80
2023-01-29T04:52:18.505Z,0.69
2023-01-29T04:54:59.360Z,0.74
2023-01-29T04:57:35.989Z,0.80
2023-01-29T05:00:12.116Z,0.67
2023-01-29T05:02:43.139Z,0.72
2023-01-29T05:05:12.511Z,0.78
2023-01-29T05:07:45.100Z,-0.25
2023-01-29T05:10:17.020Z,0.48
2023-01-29T05:12:50.710Z,0.43
2023-01-29T05:15:24.601Z,-0.03
2023-01-29T05:18:03.181Z,0.79
2023-01-29T05:20:35.221Z,0.46
2023-01-29T05:23:05.227Z,0.43
2023-01-29T05:25:35.318Z,0.56
2023-01-29T05:28:06.028Z,0.27
2023-01-29T05:30:37.233Z,0.62
2023-01-29T05:33:10.923Z,0.59
2023-01-29T05:35:39.314Z,0.83
2023-01-29T05:38:09.207Z,0.57
2023-01-29T05:40:38.279Z,0.42
2023-01-29T05:43:07.179Z,0.92
2023-01-29T05:45:35.637Z,0.89
2023-01-29T05:48:04.080Z,1.08
2023-01-29T05:50:33.344Z,1.02
2023-01-29T05:53:03.274Z,0.85
2023-01-29T05:55:33.011Z,1.33
2023-01-29T05:58:01.471Z,1.40
2023-01-29T06:00:29.823Z,0.91
2023-01-29T06:02:59.998Z,1.27
2023-01-29T06:05:28.425Z,1.35
2023-01-29T06:07:56.905Z,1.28
2023-01-29T06:10:25.406Z,0.72
2023-01-29T06:12:55.213Z,0.84
2023-01-29T06:15:24.887Z,0.28
2023-01-29T06:17:55.049Z,1.25
2023-01-29T06:20:24.239Z,0.89
2023-01-29T06:22:52.676Z,0.81
2023-01-29T06:25:21.305Z,0.99
2023-01-29T06:27:52.306Z,0.71
2023-01-29T06:30:22.226Z,0.67
2023-01-29T06:32:50.680Z,0.90
2023-01-29T06:35:19.173Z,0.49
2023-01-29T06:37:47.440Z,1.13
2023-01-29T06:40:16.121Z,0.73
2023-01-29T06:42:46.132Z,1.17
2023-01-29T06:45:14.710Z,1.03
2023-01-29T06:47:44.404Z,1.24
2023-01-29T06:50:14.046Z,1.02
2023-01-29T06:52:42.520Z,1.21
2023-01-29T06:55:11.507Z,1.03
2023-01-29T06:57:39.908Z,1.04
2023-01-29T07:00:11.179Z,1.00
2023-01-29T07:02:39.511Z,1.00
2023-01-29T07:05:10.006Z,0.97
2023-01-29T07:07:38.400Z,1.11
2023-01-29T07:10:09.341Z,0.99
2023-01-29T07:12:37.676Z,0.87
2023-01-29T07:15:08.193Z,0.75
2023-01-29T07:17:36.844Z,1.07
2023-01-29T07:20:07.069Z,0.94
2023-01-29T07:22:36.919Z,0.80
2023-01-29T07:25:06.897Z,1.04
2023-01-29T07:27:35.228Z,0.80
2023-01-29T07:30:03.736Z,1.16
2023-01-29T07:32:32.176Z,1.16
2023-01-29T07:35:00.481Z,0.47
2023-01-29T07:37:28.847Z,0.77
2023-01-29T07:39:58.735Z,1.30
2023-01-29T07:42:27.173Z,1.03
2023-01-29T07:44:55.545Z,0.79
2023-01-29T07:47:23.975Z,0.83
2023-01-29T07:49:52.416Z,0.56
2023-01-29T07:52:22.396Z,0.76
2023-01-29T07:54:51.029Z,0.82
2023-01-29T07:57:20.746Z,0.97
2023-01-29T07:59:50.173Z,0.77
2023-01-29T08:02:19.293Z,0.89
2023-01-29T08:04:48.294Z,0.02
2023-01-29T08:07:16.823Z,1.06
2023-01-29T08:09:47.026Z,1.13
2023-01-29T08:12:16.755Z,1.19
2023-01-29T08:14:46.967Z,1.06
2023-01-29T08:17:15.567Z,0.79
2023-01-29T08:19:44.019Z,0.98
2023-01-29T08:22:12.394Z,1.00
2023-01-29T08:24:53.611Z,0.91
2023-01-29T08:27:28.637Z,0.86
2023-01-29T08:29:58.693Z,0.73
2023-01-29T08:32:27.139Z,0.93
2023-01-29T08:34:55.481Z,0.97
2023-01-29T08:37:23.898Z,0.99
2023-01-29T08:39:52.288Z,1.12
2023-01-29T08:42:20.835Z,0.66
2023-01-29T08:44:49.261Z,1.07
2023-01-29T08:47:19.458Z,0.45
2023-01-29T08:49:47.891Z,1.10
2023-01-29T08:52:16.333Z,0.31
2023-01-29T08:54:44.791Z,1.05
2023-01-29T08:57:13.257Z,1.00
2023-01-29T08:59:44.006Z,1.41
2023-01-29T09:02:14.360Z,1.36
2023-01-29T09:04:44.364Z,1.33
2023-01-29T09:07:13.506Z,1.07
2023-01-29T09:09:42.068Z,1.54
2023-01-29T09:12:10.439Z,1.55
2023-01-29T09:14:38.860Z,1.09
2023-01-29T09:17:07.915Z,1.51
2023-01-29T09:19:36.272Z,1.62
2023-01-29T09:22:06.180Z,1.38
2023-01-29T09:24:35.079Z,1.51
2023-01-29T09:27:04.253Z,1.24
2023-01-29T09:29:35.501Z,1.46
2023-01-29T09:32:05.578Z,1.17
2023-01-29T09:34:35.542Z,1.92
2023-01-29T09:37:05.871Z,2.11
2023-01-29T09:39:34.513Z,2.16
2023-01-29T09:42:13.076Z,1.88
2023-01-29T09:44:55.387Z,1.90
2023-01-29T09:47:27.052Z,1.74
2023-01-29T09:50:01.654Z,1.61
2023-01-29T09:52:36.100Z,1.98
2023-01-29T09:55:17.536Z,1.70
2023-01-29T09:57:50.422Z,1.15
2023-01-29T10:00:25.651Z,1.99
2023-01-29T10:03:31.494Z,1.09
2023-01-29T10:06:20.390Z,2.33
2023-01-29T10:09:36.816Z,1.49
2023-01-29T10:12:22.681Z,2.16
2023-01-29T10:15:01.068Z,2.12
2023-01-29T10:17:59.520Z,2.08
2023-01-29T10:21:00.314Z,2.10
2023-01-29T10:23:33.423Z,2.13
2023-01-29T10:26:04.203Z,2.04
2023-01-29T10:28:38.824Z,1.78
2023-01-29T10:31:13.919Z,2.32
2023-01-29T10:34:01.634Z,2.14
2023-01-29T10:36:39.925Z,2.52
2023-01-29T10:39:18.968Z,2.51
2023-01-29T10:42:10.816Z,2.79
2023-01-29T10:44:54.171Z,2.53
2023-01-29T10:47:52.660Z,2.74
2023-01-29T10:50:40.563Z,2.49
2023-01-29T10:53:42.334Z,2.91
2023-01-29T10:56:29.757Z,2.61
2023-01-29T10:59:05.429Z,2.42
2023-01-29T11:01:33.879Z,2.66
2023-01-29T11:04:05.643Z,2.71
2023-01-29T11:06:36.857Z,2.34
2023-01-29T11:09:14.738Z,2.96
2023-01-29T11:11:48.885Z,2.62
2023-01-29T11:14:28.395Z,2.94
2023-01-29T11:16:57.737Z,2.67
2023-01-29T11:19:41.259Z,2.84
2023-01-29T11:22:16.247Z,3.03
2023-01-29T11:24:44.873Z,2.73
2023-01-29T11:27:25.961Z,2.67
2023-01-29T11:29:56.902Z,3.03
2023-01-29T11:32:34.125Z,2.63
2023-01-29T11:35:06.008Z,2.73
2023-01-29T11:37:38.585Z,3.17
2023-01-29T11:40:37.542Z,2.80
2023-01-29T11:43:29.671Z,2.62
2023-01-29T11:46:03.076Z,2.35
2023-01-29T11:48:45.777Z,2.64
2023-01-29T11:51:27.411Z,2.35
2023-01-29T11:53:58.043Z,2.88
2023-01-29T11:56:34.144Z,2.56
2023-01-29T11:59:04.635Z,2.56
2023-01-29T12:01:38.826Z,2.51
2023-01-29T12:04:19.596Z,2.70
2023-01-29T12:06:52.657Z,2.73
2023-01-29T12:09:24.532Z,2.82
2023-01-29T12:11:53.046Z,2.72
2023-01-29T12:14:33.381Z,3.07
2023-01-29T12:17:09.340Z,3.08
2023-01-29T12:19:45.457Z,2.99
2023-01-29T12:22:21.764Z,2.88
2023-01-29T12:24:56.661Z,2.88
2023-01-29T12:27:33.029Z,2.73
2023-01-29T12:30:09.319Z,2.76
2023-01-29T12:32:49.953Z,3.20
2023-01-29T12:35:25.970Z,3.05
2023-01-29T12:38:03.615Z,3.17
2023-01-29T12:40:43.730Z,2.90
2023-01-29T12:43:17.998Z,3.24
2023-01-29T12:45:52.174Z,3.02
2023-01-29T12:48:27.429Z,2.91
2023-01-29T12:51:04.427Z,3.02
2023-01-29T12:53:38.435Z,3.40
2023-01-29T12:56:13.129Z,3.33
2023-01-29T12:58:47.692Z,3.62
2023-01-29T13:01:24.060Z,3.51
2023-01-29T13:04:00.619Z,3.30
2023-01-29T13:06:34.243Z,3.39
2023-01-29T13:09:07.648Z,3.45
2023-01-29T13:11:41.678Z,3.22
2023-01-29T13:14:22.043Z,2.53
2023-01-29T13:16:55.473Z,3.27
2023-01-29T13:19:30.550Z,2.91
2023-01-29T13:22:05.384Z,3.02
2023-01-29T13:24:40.828Z,3.14
2023-01-29T13:27:25.025Z,3.31
2023-01-29T13:29:54.703Z,3.29
2023-01-29T13:32:27.888Z,2.94
2023-01-29T13:35:01.474Z,3.21
2023-01-29T13:37:35.252Z,3.17
2023-01-29T13:40:08.297Z,2.90
2023-01-29T13:42:44.336Z,3.18
2023-01-29T13:45:22.928Z,3.16
2023-01-29T13:47:53.744Z,3.24
2023-01-29T13:50:38.572Z,3.31
2023-01-29T13:53:10.503Z,3.37
2023-01-29T13:55:41.196Z,3.21
2023-01-29T13:58:16.244Z,3.44
2023-01-29T14:00:54.469Z,3.13
2023-01-29T14:04:03.725Z,3.60
2023-01-29T14:06:53.094Z,3.03
2023-01-29T14:10:12.659Z,2.98
2023-01-29T14:12:54.352Z,3.25
2023-01-29T14:15:33.988Z,2.89
2023-01-29T14:18:21.830Z,2.84
2023-01-29T14:20:59.211Z,3.18
2023-01-29T14:23:49.263Z,3.01
2023-01-29T14:26:29.543Z,3.13
2023-01-29T14:29:07.956Z,3.28
2023-01-29T14:31:45.091Z,3.25
2023-01-29T14:34:28.759Z,3.32
2023-01-29T14:37:00.464Z,3.27
2023-01-29T14:39:38.923Z,3.53
2023-01-29T14:42:22.430Z,3.39
2023-01-29T14:45:08.173Z,3.02
2023-01-29T14:48:23.818Z,3.33
2023-01-29T14:51:00.644Z,2.93
2023-01-29T14:53:53.001Z,3.20
2023-01-29T14:56:34.591Z,3.04
2023-01-29T14:59:17.743Z,2.91
2023-01-29T15:01:52.450Z,3.14
2023-01-29T15:04:27.463Z,3.04
2023-01-29T15:07:02.753Z,3.09
2023-01-29T15:09:41.788Z,2.66
2023-01-29T15:12:25.266Z,2.79
2023-01-29T15:15:04.437Z,2.68
2023-01-29T15:17:39.228Z,2.58
2023-01-29T15:20:31.052Z,2.59
2023-01-29T15:22:59.811Z,2.76
2023-01-29T15:25:35.813Z,2.52
2023-01-29T15:28:10.522Z,2.50
2023-01-29T15:30:39.669Z,2.71
2023-01-29T15:33:11.977Z,2.53
2023-01-29T15:35:43.485Z,2.05
2023-01-29T15:38:18.891Z,2.69
2023-01-29T15:40:55.049Z,2.42
2023-01-29T15:43:27.904Z,2.39
2023-01-29T15:46:00.668Z,2.65
2023-01-29T15:48:34.620Z,2.38
2023-01-29T15:51:07.447Z,2.51
2023-01-29T15:53:43.028Z,2.26
2023-01-29T15:56:13.136Z,2.33
2023-01-29T15:58:44.014Z,2.18
2023-01-29T16:01:12.904Z,2.44
2023-01-29T16:03:44.161Z,2.23
2023-01-29T16:06:13.606Z,2.49
2023-01-29T16:08:43.738Z,2.51
2023-01-29T16:11:12.538Z,2.41
2023-01-29T16:13:44.304Z,2.32
2023-01-29T16:16:25.036Z,2.30
2023-01-29T16:19:00.399Z,2.38
2023-01-29T16:21:36.216Z,2.13
2023-01-29T16:24:11.691Z,1.98
2023-01-29T16:26:45.501Z,1.88
2023-01-29T16:29:18.309Z,2.06
2023-01-29T16:31:49.097Z,2.16
2023-01-29T16:34:25.759Z,2.14
2023-01-29T16:36:55.629Z,1.68
2023-01-29T16:39:29.341Z,2.06
2023-01-29T16:42:29.182Z,2.18
2023-01-29T16:45:02.495Z,2.18
2023-01-29T16:47:36.775Z,2.09
2023-01-29T16:50:36.154Z,2.03
2023-01-29T16:53:13.165Z,2.27
2023-01-29T16:55:46.948Z,2.38
2023-01-29T16:58:20.480Z,2.08
2023-01-29T17:00:54.372Z,1.97
2023-01-29T17:03:26.014Z,2.08
2023-01-29T17:05:55.238Z,1.93
2023-01-29T17:08:29.359Z,1.54
2023-01-29T17:10:58.461Z,1.72
2023-01-29T17:13:36.397Z,1.26
2023-01-29T17:16:21.534Z,1.74
2023-01-29T17:18:49.985Z,2.25
2023-01-29T17:21:18.573Z,2.17
2023-01-29T17:23:47.979Z,2.11
2023-01-29T17:26:16.994Z,2.12
2023-01-29T17:28:46.165Z,2.20
2023-01-29T17:31:16.284Z,2.18
2023-01-29T17:33:45.943Z,1.89
2023-01-29T17:36:19.390Z,1.89
2023-01-29T17:38:48.002Z,2.07
2023-01-29T17:41:26.460Z,1.98
2023-01-29T17:43:54.998Z,1.88
2023-01-29T17:46:24.770Z,2.07
2023-01-29T17:48:53.245Z,2.14
2023-01-29T17:51:24.611Z,2.06
2023-01-29T17:53:53.592Z,2.09
2023-01-29T17:56:28.096Z,1.98
2023-01-29T17:58:56.685Z,1.95
2023-01-29T18:01:28.986Z,2.30
2023-01-29T18:03:57.433Z,2.25
2023-01-29T18:06:29.768Z,2.08
2023-01-29T18:08:58.720Z,1.89
2023-01-29T18:11:27.220Z,2.30
2023-01-29T18:13:57.116Z,2.37
2023-01-29T18:16:27.279Z,1.89
2023-01-29T18:18:58.553Z,2.08
2023-01-29T18:21:27.012Z,1.98
2023-01-29T18:23:55.576Z,1.79
2023-01-29T18:26:24.149Z,1.82
2023-01-29T18:28:52.865Z,2.08
2023-01-29T18:31:21.465Z,2.18
2023-01-29T18:33:51.326Z,2.14
2023-01-29T18:36:19.931Z,2.02
2023-01-29T18:38:48.334Z,1.81
2023-01-29T18:41:16.970Z,2.33
2023-01-29T18:43:45.550Z,1.99
2023-01-29T18:46:14.120Z,2.11
2023-01-29T18:48:43.136Z,1.92
2023-01-29T18:51:12.953Z,1.98
2023-01-29T18:53:42.140Z,2.08
2023-01-29T18:56:12.237Z,1.70
2023-01-29T18:58:40.707Z,1.97
2023-01-29T19:01:12.002Z,1.92
2023-01-29T19:03:42.340Z,1.79
2023-01-29T19:06:13.495Z,1.69
2023-01-29T19:08:43.056Z,2.11
2023-01-29T19:11:12.623Z,1.60
2023-01-29T19:13:42.589Z,2.10
2023-01-29T19:16:12.691Z,1.78
2023-01-29T19:18:41.303Z,1.90
2023-01-29T19:21:13.344Z,2.02
2023-01-29T19:23:42.848Z,1.62
2023-01-29T19:26:13.664Z,2.02
2023-01-29T19:28:42.345Z,2.20
2023-01-29T19:31:11.499Z,2.05
2023-01-29T19:33:40.123Z,1.99
2023-01-29T19:36:11.906Z,2.14
2023-01-29T19:38:42.621Z,2.23
2023-01-29T19:41:11.338Z,2.16
2023-01-29T19:43:41.915Z,1.85
2023-01-29T19:46:13.630Z,1.90
2023-01-29T19:48:42.157Z,2.12
2023-01-29T19:51:13.054Z,1.87
2023-01-29T19:53:44.970Z,2.13
2023-01-29T19:56:16.166Z,2.15
2023-01-29T19:58:45.791Z,1.78
2023-01-29T20:01:19.845Z,1.78
2023-01-29T20:03:50.445Z,1.94
2023-01-29T20:06:24.752Z,2.09
2023-01-29T20:08:54.891Z,1.71
2023-01-29T20:11:27.862Z,1.90
2023-01-29T20:13:56.595Z,1.96
2023-01-29T20:16:26.416Z,1.99
2023-01-29T20:18:54.915Z,1.95
2023-01-29T20:21:45.255Z,2.36
2023-01-29T20:24:16.275Z,2.34
2023-01-29T20:26:44.794Z,2.38
2023-01-29T20:29:13.438Z,2.48
2023-01-29T20:31:42.427Z,2.35
2023-01-29T20:34:11.234Z,2.09
2023-01-29T20:36:39.981Z,2.03
2023-01-29T20:39:08.683Z,2.44
2023-01-29T20:41:41.622Z,2.33
2023-01-29T20:44:10.193Z,2.44
2023-01-29T20:46:39.477Z,2.57
2023-01-29T20:49:08.114Z,2.45
2023-01-29T20:51:36.582Z,2.62
2023-01-29T20:54:05.513Z,2.64
2023-01-29T20:56:38.478Z,2.37
2023-01-29T20:59:13.689Z,2.78
2023-01-29T21:01:43.079Z,1.54
2023-01-29T21:04:11.586Z,2.28
2023-01-29T21:06:40.497Z,2.70
2023-01-29T21:09:09.500Z,2.47
2023-01-29T21:11:38.007Z,2.52
2023-01-29T21:14:07.331Z,2.78
2023-01-29T21:16:37.136Z,2.80
2023-01-29T21:19:05.641Z,2.89
2023-01-29T21:21:34.693Z,2.74
2023-01-29T21:24:03.220Z,2.66
2023-01-29T21:26:32.103Z,2.90
2023-01-29T21:29:00.804Z,2.98
2023-01-29T21:31:29.313Z,2.96
2023-01-29T21:33:59.147Z,2.96
2023-01-29T21:36:27.557Z,2.89
2023-01-29T21:38:56.101Z,2.97
2023-01-29T21:41:44.841Z,3.07
2023-01-29T21:44:12.837Z,3.08
2023-01-29T21:46:41.394Z,3.19
2023-01-29T21:49:11.149Z,3.19
2023-01-29T21:51:41.760Z,3.14
2023-01-29T21:54:10.705Z,3.00
2023-01-29T21:56:39.130Z,3.23
2023-01-29T21:59:07.668Z,3.34
2023-01-29T22:01:38.782Z,3.14
2023-01-29T22:04:09.703Z,3.32
2023-01-29T22:06:39.503Z,3.29
2023-01-29T22:09:08.095Z,3.47
2023-01-29T22:11:38.045Z,3.37
2023-01-29T22:14:06.509Z,3.39
2023-01-29T22:16:35.359Z,3.25
2023-01-29T22:19:03.716Z,3.60
2023-01-29T22:21:33.518Z,3.57
2023-01-29T22:24:05.688Z,3.45
2023-01-29T22:26:34.246Z,3.43
2023-01-29T22:29:02.980Z,3.51
2023-01-29T22:31:31.330Z,3.47
2023-01-29T22:33:59.694Z,3.43
2023-01-29T22:36:28.091Z,3.58
2023-01-29T22:38:56.552Z,3.58
2023-01-29T22:41:26.552Z,3.24
2023-01-29T22:43:54.931Z,3.50
2023-01-29T22:46:23.340Z,3.49
2023-01-29T22:48:51.804Z,3.56
2023-01-29T22:51:20.143Z,3.36
2023-01-29T22:53:52.606Z,3.64
2023-01-29T22:56:25.257Z,3.39
2023-01-29T22:58:57.959Z,3.44
2023-01-29T23:01:29.232Z,3.45
2023-01-29T23:03:58.239Z,3.77
2023-01-29T23:06:27.166Z,3.66
2023-01-29T23:08:55.548Z,3.43
2023-01-29T23:11:24.378Z,3.84
2023-01-29T23:13:55.777Z,3.69
2023-01-29T23:16:27.954Z,3.69
2023-01-29T23:18:57.808Z,3.89
2023-01-29T23:21:27.732Z,3.72
2023-01-29T23:23:58.341Z,3.93
2023-01-29T23:26:45.439Z,3.69
2023-01-29T23:29:15.832Z,3.56
2023-01-29T23:31:44.176Z,3.97
2023-01-29T23:34:13.700Z,4.05
2023-01-29T23:36:42.500Z,4.08
2023-01-29T23:39:11.939Z,4.02
2023-01-29T23:41:40.309Z,4.13
2023-01-29T23:44:08.924Z,4.23
2023-01-29T23:46:38.735Z,4.11
2023-01-29T23:49:07.229Z,4.23
2023-01-29T23:51:36.043Z,4.16
2023-01-29T23:54:04.503Z,4.05
2023-01-29T23:56:33.181Z,4.16
2023-01-29T23:59:01.624Z,4.26
